AXY34 KFLL-KDFW
Flight info
| Callsign | AXY34 |
|---|---|
| Flight time | 2h 47m |
| Altitude | 38000 |
| Route | BNICE2 DOLIE Y280 REDFN Q105 HRV J58 AEX PNUTS BEREE3 |
| Aircraft | A346/H-SDE2E3FGHIJ3J4J5M1RWXY/LB1D1 |
Departure
| Time | 2026-05-03 20:48 |
|---|---|
| Airport | Fort Lauderdale Hollywood International Airport (KFLL) |
Arrival
| Time | 2026-05-03 23:35 |
|---|---|
| Airport | Dallas Fort Worth International Airport (KDFW) |
| Time | Latitude | Longitude | Altitude | Speed | Heading |
|---|---|---|---|---|---|
| 2026-05-03 20:15 | 26.07338 | -80.15712 | 24 ft | 0 kts | 43° |
| 2026-05-03 20:26 | 26.07339 | -80.15712 | 24 ft | 0 kts | 43° |
| 2026-05-03 20:27 | 26.07347 | -80.15704 | 24 ft | 3 kts | 39° |
| 2026-05-03 20:27 | 26.07375 | -80.15688 | 27 ft | 6 kts | 17° |
| 2026-05-03 20:27 | 26.07424 | -80.15695 | 24 ft | 9 kts | 329° |
| 2026-05-03 20:27 | 26.07472 | -80.15757 | 26 ft | 12 kts | 301° |
| 2026-05-03 20:28 | 26.07492 | -80.15857 | 28 ft | 14 kts | 271° |
| 2026-05-03 20:28 | 26.07493 | -80.15973 | 24 ft | 16 kts | 270° |
| 2026-05-03 20:28 | 26.07494 | -80.16114 | 24 ft | 19 kts | 270° |
| 2026-05-03 20:28 | 26.07495 | -80.16274 | 24 ft | 22 kts | 270° |
| 2026-05-03 20:29 | 26.07496 | -80.16425 | 24 ft | 12 kts | 270° |
| 2026-05-03 20:29 | 26.07497 | -80.16478 | 24 ft | 7 kts | 270° |
| 2026-05-03 20:29 | 26.07497 | -80.16522 | 24 ft | 0 kts | 270° |
| 2026-05-03 20:33 | 26.07497 | -80.16538 | 27 ft | 4 kts | 270° |
| 2026-05-03 20:33 | 26.07497 | -80.16581 | 24 ft | 7 kts | 270° |
| 2026-05-03 20:34 | 26.07509 | -80.16620 | 28 ft | 0 kts | 315° |
| 2026-05-03 20:34 | 26.07509 | -80.16621 | 24 ft | 0 kts | 315° |
| 2026-05-03 20:41 | 26.07510 | -80.16621 | 24 ft | 1 kts | 317° |
| 2026-05-03 20:41 | 26.07521 | -80.16630 | 28 ft | 4 kts | 331° |
| 2026-05-03 20:42 | 26.07557 | -80.16641 | 24 ft | 7 kts | 353° |
| 2026-05-03 20:42 | 26.07566 | -80.16642 | 25 ft | 0 kts | 356° |
| 2026-05-03 20:45 | 26.07567 | -80.16642 | 25 ft | 0 kts | 356° |
| 2026-05-03 20:45 | 26.07576 | -80.16642 | 25 ft | 3 kts | 357° |
| 2026-05-03 20:45 | 26.07626 | -80.16644 | 25 ft | 9 kts | 359° |
| 2026-05-03 20:46 | 26.07682 | -80.16637 | 27 ft | 6 kts | 43° |
| 2026-05-03 20:46 | 26.07693 | -80.16594 | 26 ft | 5 kts | 87° |
| 2026-05-03 20:46 | 26.07693 | -80.16588 | 26 ft | 0 kts | 88° |
| 2026-05-03 20:47 | 26.07694 | -80.16541 | 27 ft | 28 kts | 89° |
| 2026-05-03 20:47 | 26.07692 | -80.16058 | 27 ft | 94 kts | 90° |
| 2026-05-03 20:47 | 26.07687 | -80.15104 | 24 ft | 150 kts | 90° |
| 2026-05-03 20:48 | 26.07668 | -80.13814 | 283 ft | 174 kts | 89° |
| 2026-05-03 20:48 | 26.07668 | -80.12442 | 840 ft | 181 kts | 88° |
| 2026-05-03 20:48 | 26.07701 | -80.11019 | 1399 ft | 186 kts | 80° |
| 2026-05-03 20:48 | 26.08044 | -80.09613 | 1920 ft | 194 kts | 68° |
| 2026-05-03 20:49 | 26.08543 | -80.08161 | 2356 ft | 207 kts | 63° |
| 2026-05-03 20:49 | 26.09492 | -80.06929 | 2777 ft | 218 kts | 28° |
| 2026-05-03 20:49 | 26.10946 | -80.06342 | 3237 ft | 230 kts | 14° |
| 2026-05-03 20:49 | 26.12545 | -80.05818 | 3567 ft | 251 kts | 15° |
| 2026-05-03 20:50 | 26.14240 | -80.05174 | 3913 ft | 267 kts | 14° |
| 2026-05-03 20:50 | 26.16079 | -80.04969 | 4005 ft | 267 kts | 351° |
| 2026-05-03 20:50 | 26.17862 | -80.05479 | 4015 ft | 265 kts | 339° |
| 2026-05-03 20:50 | 26.19600 | -80.06162 | 4010 ft | 264 kts | 338° |
| 2026-05-03 20:51 | 26.21311 | -80.06907 | 3999 ft | 263 kts | 328° |
| 2026-05-03 20:51 | 26.22649 | -80.08244 | 4003 ft | 259 kts | 302° |
| 2026-05-03 20:51 | 26.23416 | -80.10057 | 4017 ft | 258 kts | 290° |
| 2026-05-03 20:51 | 26.24064 | -80.11922 | 4012 ft | 259 kts | 290° |
| 2026-05-03 20:52 | 26.24715 | -80.13801 | 3990 ft | 260 kts | 290° |
| 2026-05-03 20:52 | 26.25304 | -80.15752 | 4331 ft | 270 kts | 284° |
| 2026-05-03 20:52 | 26.25703 | -80.17774 | 5355 ft | 264 kts | 279° |
| 2026-05-03 20:52 | 26.26002 | -80.19785 | 6391 ft | 263 kts | 278° |
| 2026-05-03 20:53 | 26.26295 | -80.21811 | 7279 ft | 266 kts | 278° |
| 2026-05-03 20:53 | 26.26586 | -80.23854 | 8182 ft | 267 kts | 278° |
| 2026-05-03 20:53 | 26.26879 | -80.25910 | 9122 ft | 268 kts | 277° |
| 2026-05-03 20:53 | 26.27172 | -80.27971 | 10050 ft | 270 kts | 277° |
| 2026-05-03 20:54 | 26.27470 | -80.30065 | 10742 ft | 279 kts | 277° |
| 2026-05-03 20:54 | 26.28106 | -80.34579 | 11500 ft | 314 kts | 277° |
| 2026-05-03 20:54 | 26.28456 | -80.37056 | 11882 ft | 331 kts | 277° |
| 2026-05-03 20:55 | 26.28823 | -80.39654 | 12328 ft | 347 kts | 277° |
| 2026-05-03 20:55 | 26.29208 | -80.42377 | 12740 ft | 362 kts | 277° |
| 2026-05-03 20:55 | 26.29604 | -80.45172 | 13459 ft | 367 kts | 277° |
| 2026-05-03 20:55 | 26.30007 | -80.48001 | 14077 ft | 371 kts | 278° |
| 2026-05-03 20:56 | 26.30411 | -80.50868 | 14610 ft | 375 kts | 277° |
| 2026-05-03 20:56 | 26.30818 | -80.53740 | 15430 ft | 374 kts | 277° |
| 2026-05-03 20:56 | 26.31225 | -80.56615 | 16200 ft | 376 kts | 276° |
| 2026-05-03 20:56 | 26.31631 | -80.59508 | 16915 ft | 378 kts | 276° |
| 2026-05-03 20:57 | 26.32039 | -80.62422 | 17689 ft | 381 kts | 276° |
| 2026-05-03 20:57 | 26.32450 | -80.65366 | 18463 ft | 385 kts | 276° |
| 2026-05-03 20:57 | 26.32864 | -80.68332 | 19061 ft | 388 kts | 276° |
| 2026-05-03 20:57 | 26.33283 | -80.71333 | 19631 ft | 392 kts | 276° |
| 2026-05-03 20:58 | 26.33698 | -80.74308 | 20294 ft | 394 kts | 276° |
| 2026-05-03 20:58 | 26.34121 | -80.77342 | 20999 ft | 396 kts | 275° |
| 2026-05-03 20:58 | 26.34544 | -80.80392 | 21607 ft | 398 kts | 275° |
| 2026-05-03 20:58 | 26.34969 | -80.83456 | 22206 ft | 401 kts | 275° |
| 2026-05-03 20:59 | 26.35397 | -80.86557 | 22831 ft | 405 kts | 275° |
| 2026-05-03 20:59 | 26.36020 | -80.89654 | 23391 ft | 415 kts | 284° |
| 2026-05-03 20:59 | 26.37213 | -80.92628 | 23908 ft | 426 kts | 294° |
| 2026-05-03 20:59 | 26.38954 | -80.95368 | 24394 ft | 439 kts | 304° |
| 2026-05-03 21:00 | 26.41127 | -80.97815 | 24928 ft | 446 kts | 309° |
| 2026-05-03 21:00 | 26.41887 | -80.98625 | 25132 ft | 447 kts | 309° |
| 2026-05-03 21:00 | 26.45664 | -81.02608 | 26031 ft | 452 kts | 310° |
| 2026-05-03 21:00 | 26.47963 | -81.05021 | 26543 ft | 455 kts | 309° |
| 2026-05-03 21:01 | 26.50280 | -81.07452 | 27060 ft | 458 kts | 309° |
| 2026-05-03 21:01 | 26.52605 | -81.09898 | 27537 ft | 461 kts | 309° |
| 2026-05-03 21:01 | 26.54944 | -81.12362 | 28030 ft | 463 kts | 309° |
| 2026-05-03 21:01 | 26.57295 | -81.14841 | 28513 ft | 465 kts | 309° |
| 2026-05-03 21:02 | 26.59654 | -81.17328 | 29210 ft | 464 kts | 309° |
| 2026-05-03 21:02 | 26.61209 | -81.18965 | 29717 ft | 463 kts | 309° |
| 2026-05-03 21:02 | 26.63542 | -81.21425 | 30453 ft | 460 kts | 309° |
| 2026-05-03 21:02 | 26.65858 | -81.23875 | 31135 ft | 457 kts | 308° |
| 2026-05-03 21:03 | 26.68159 | -81.26315 | 31835 ft | 453 kts | 308° |
| 2026-05-03 21:03 | 26.70438 | -81.28736 | 32586 ft | 449 kts | 307° |
| 2026-05-03 21:03 | 26.73422 | -81.31905 | 33618 ft | 442 kts | 307° |
| 2026-05-03 21:03 | 26.75641 | -81.34263 | 34364 ft | 437 kts | 306° |
| 2026-05-03 21:04 | 26.77127 | -81.35846 | 34802 ft | 434 kts | 306° |
| 2026-05-03 21:04 | 26.79309 | -81.38176 | 35375 ft | 432 kts | 306° |
| 2026-05-03 21:04 | 26.81481 | -81.40499 | 35876 ft | 431 kts | 306° |
| 2026-05-03 21:04 | 26.83657 | -81.42826 | 36363 ft | 431 kts | 306° |
| 2026-05-03 21:05 | 26.85824 | -81.45145 | 36802 ft | 431 kts | 305° |
| 2026-05-03 21:05 | 26.87971 | -81.47443 | 37159 ft | 433 kts | 305° |
| 2026-05-03 21:05 | 26.90157 | -81.49782 | 37498 ft | 435 kts | 305° |
| 2026-05-03 21:05 | 26.92355 | -81.52134 | 37893 ft | 436 kts | 305° |
| 2026-05-03 21:06 | 26.94559 | -81.54489 | 38049 ft | 438 kts | 305° |
| 2026-05-03 21:06 | 26.96764 | -81.56849 | 38049 ft | 438 kts | 305° |
| 2026-05-03 21:06 | 27.01177 | -81.61577 | 38060 ft | 438 kts | 305° |
| 2026-05-03 21:07 | 27.05588 | -81.66307 | 38086 ft | 438 kts | 305° |
| 2026-05-03 21:07 | 27.09997 | -81.71039 | 38072 ft | 438 kts | 305° |
| 2026-05-03 21:08 | 27.14399 | -81.75770 | 38069 ft | 438 kts | 305° |
| 2026-05-03 21:08 | 27.18800 | -81.80505 | 38069 ft | 438 kts | 305° |
| 2026-05-03 21:09 | 27.23019 | -81.85372 | 38066 ft | 428 kts | 299° |
| 2026-05-03 21:09 | 27.26412 | -81.90737 | 38087 ft | 414 kts | 290° |
| 2026-05-03 21:10 | 27.28934 | -81.96473 | 38070 ft | 404 kts | 283° |
| 2026-05-03 21:10 | 27.30602 | -82.02422 | 38069 ft | 395 kts | 276° |
| 2026-05-03 21:11 | 27.31775 | -82.08433 | 38067 ft | 396 kts | 275° |
| 2026-05-03 21:11 | 27.32929 | -82.14499 | 38067 ft | 396 kts | 275° |
| 2026-05-03 21:12 | 27.34068 | -82.20560 | 38061 ft | 396 kts | 275° |
| 2026-05-03 21:12 | 27.35201 | -82.26636 | 38059 ft | 396 kts | 275° |
| 2026-05-03 21:13 | 27.36329 | -82.32705 | 38061 ft | 396 kts | 275° |
| 2026-05-03 21:13 | 27.37455 | -82.38781 | 38060 ft | 396 kts | 275° |
| 2026-05-03 21:14 | 27.38576 | -82.44851 | 38064 ft | 395 kts | 275° |
| 2026-05-03 21:14 | 27.39695 | -82.50920 | 38049 ft | 395 kts | 275° |
| 2026-05-03 21:15 | 27.40803 | -82.56951 | 38046 ft | 395 kts | 275° |
| 2026-05-03 21:15 | 27.41937 | -82.63026 | 38047 ft | 396 kts | 275° |
| 2026-05-03 21:16 | 27.43073 | -82.69104 | 38056 ft | 395 kts | 275° |
| 2026-05-03 21:16 | 27.44205 | -82.75175 | 38051 ft | 396 kts | 275° |
| 2026-05-03 21:17 | 27.45142 | -82.80219 | 38068 ft | 395 kts | 275° |
| 2026-05-03 21:17 | 27.46457 | -82.87306 | 38053 ft | 394 kts | 275° |
| 2026-05-03 21:18 | 27.47576 | -82.93361 | 38050 ft | 394 kts | 275° |
| 2026-05-03 21:18 | 27.48693 | -82.99415 | 38048 ft | 394 kts | 275° |
| 2026-05-03 21:19 | 27.49799 | -83.05426 | 38047 ft | 394 kts | 275° |
| 2026-05-03 21:19 | 27.50918 | -83.11520 | 38040 ft | 394 kts | 275° |
| 2026-05-03 21:20 | 27.52020 | -83.17539 | 38059 ft | 394 kts | 275° |
| 2026-05-03 21:20 | 27.53125 | -83.23598 | 38056 ft | 393 kts | 275° |
| 2026-05-03 21:21 | 27.54224 | -83.29643 | 38048 ft | 393 kts | 274° |
| 2026-05-03 21:21 | 27.55320 | -83.35689 | 38049 ft | 393 kts | 274° |
| 2026-05-03 21:22 | 27.56413 | -83.41728 | 38053 ft | 393 kts | 274° |
| 2026-05-03 21:22 | 27.57505 | -83.47774 | 38067 ft | 393 kts | 274° |
| 2026-05-03 21:23 | 27.58594 | -83.53821 | 38076 ft | 393 kts | 274° |
| 2026-05-03 21:23 | 27.59672 | -83.59821 | 38059 ft | 392 kts | 274° |
| 2026-05-03 21:24 | 27.60754 | -83.65856 | 38061 ft | 392 kts | 274° |
| 2026-05-03 21:24 | 27.61832 | -83.71889 | 38069 ft | 392 kts | 274° |
| 2026-05-03 21:25 | 27.62910 | -83.77937 | 38068 ft | 392 kts | 274° |
| 2026-05-03 21:25 | 27.63985 | -83.83980 | 38061 ft | 392 kts | 274° |
| 2026-05-03 21:26 | 27.65054 | -83.90013 | 38070 ft | 392 kts | 274° |
| 2026-05-03 21:26 | 27.66121 | -83.96041 | 38077 ft | 391 kts | 274° |
| 2026-05-03 21:27 | 27.67183 | -84.02063 | 38077 ft | 391 kts | 274° |
| 2026-05-03 21:27 | 27.68243 | -84.08089 | 38076 ft | 391 kts | 274° |
| 2026-05-03 21:28 | 27.69300 | -84.14111 | 38080 ft | 391 kts | 274° |
| 2026-05-03 21:28 | 27.70354 | -84.20135 | 38080 ft | 390 kts | 274° |
| 2026-05-03 21:29 | 27.71399 | -84.26120 | 38082 ft | 390 kts | 274° |
| 2026-05-03 21:29 | 27.72447 | -84.32141 | 38087 ft | 390 kts | 274° |
| 2026-05-03 21:30 | 27.73491 | -84.38153 | 38091 ft | 389 kts | 274° |
| 2026-05-03 21:30 | 27.74531 | -84.44156 | 38091 ft | 389 kts | 274° |
| 2026-05-03 21:31 | 27.75568 | -84.50165 | 38092 ft | 389 kts | 274° |
| 2026-05-03 21:31 | 27.76602 | -84.56165 | 38091 ft | 389 kts | 274° |
| 2026-05-03 21:32 | 27.77635 | -84.62174 | 38090 ft | 389 kts | 274° |
| 2026-05-03 21:32 | 27.78658 | -84.68146 | 38119 ft | 388 kts | 274° |
| 2026-05-03 21:33 | 27.79680 | -84.74108 | 38089 ft | 385 kts | 274° |
| 2026-05-03 21:33 | 27.80691 | -84.80047 | 38093 ft | 384 kts | 274° |
| 2026-05-03 21:34 | 27.81699 | -84.85989 | 38099 ft | 384 kts | 274° |
| 2026-05-03 21:34 | 27.82705 | -84.91927 | 38066 ft | 385 kts | 274° |
| 2026-05-03 21:35 | 27.83710 | -84.97867 | 38070 ft | 384 kts | 274° |
| 2026-05-03 21:35 | 27.84715 | -85.03818 | 38093 ft | 384 kts | 274° |
| 2026-05-03 21:36 | 27.85714 | -85.09753 | 38100 ft | 383 kts | 274° |
| 2026-05-03 21:36 | 27.86709 | -85.15680 | 38101 ft | 383 kts | 274° |
| 2026-05-03 21:37 | 27.87709 | -85.21610 | 38098 ft | 384 kts | 275° |
| 2026-05-03 21:37 | 27.89007 | -85.27470 | 38104 ft | 389 kts | 278° |
| 2026-05-03 21:38 | 27.90712 | -85.33342 | 38103 ft | 390 kts | 280° |
| 2026-05-03 21:38 | 27.92459 | -85.39163 | 38102 ft | 390 kts | 280° |
| 2026-05-03 21:39 | 27.94199 | -85.44947 | 38110 ft | 390 kts | 281° |
| 2026-05-03 21:39 | 27.95951 | -85.50761 | 38107 ft | 390 kts | 281° |
| 2026-05-03 21:40 | 27.97704 | -85.56581 | 38105 ft | 389 kts | 281° |
| 2026-05-03 21:40 | 27.99452 | -85.62392 | 38126 ft | 389 kts | 281° |
| 2026-05-03 21:41 | 28.01199 | -85.68201 | 38127 ft | 389 kts | 280° |
| 2026-05-03 21:41 | 28.02938 | -85.74002 | 38117 ft | 389 kts | 280° |
| 2026-05-03 21:42 | 28.04674 | -85.79804 | 38114 ft | 389 kts | 280° |
| 2026-05-03 21:42 | 28.06408 | -85.85609 | 38112 ft | 389 kts | 280° |
| 2026-05-03 21:43 | 28.08141 | -85.91417 | 38111 ft | 388 kts | 280° |
| 2026-05-03 21:43 | 28.09868 | -85.97218 | 38112 ft | 388 kts | 280° |
| 2026-05-03 21:44 | 28.11596 | -86.03030 | 38112 ft | 388 kts | 280° |
| 2026-05-03 21:44 | 28.13307 | -86.08796 | 38112 ft | 388 kts | 280° |
| 2026-05-03 21:45 | 28.15028 | -86.14604 | 38116 ft | 388 kts | 280° |
| 2026-05-03 21:45 | 28.16745 | -86.20416 | 38123 ft | 388 kts | 280° |
| 2026-05-03 21:46 | 28.18464 | -86.26239 | 38119 ft | 389 kts | 280° |
| 2026-05-03 21:46 | 28.20179 | -86.32056 | 38117 ft | 389 kts | 280° |
| 2026-05-03 21:47 | 28.21893 | -86.37877 | 38114 ft | 388 kts | 280° |
| 2026-05-03 21:47 | 28.23315 | -86.42716 | 38114 ft | 388 kts | 280° |
| 2026-05-03 21:48 | 28.25302 | -86.49492 | 38120 ft | 388 kts | 280° |
| 2026-05-03 21:48 | 28.26730 | -86.54371 | 38121 ft | 388 kts | 280° |
| 2026-05-03 21:49 | 28.28431 | -86.60197 | 38122 ft | 389 kts | 281° |
| 2026-05-03 21:49 | 28.30132 | -86.66024 | 38121 ft | 389 kts | 281° |
| 2026-05-03 21:50 | 28.31835 | -86.71861 | 38119 ft | 389 kts | 281° |
| 2026-05-03 21:50 | 28.33541 | -86.77690 | 38166 ft | 389 kts | 281° |
| 2026-05-03 21:51 | 28.35248 | -86.83527 | 38133 ft | 389 kts | 281° |
| 2026-05-03 21:51 | 28.36955 | -86.89366 | 38124 ft | 389 kts | 281° |
| 2026-05-03 21:52 | 28.38661 | -86.95215 | 38146 ft | 389 kts | 281° |
| 2026-05-03 21:52 | 28.40346 | -87.01012 | 38129 ft | 390 kts | 281° |
| 2026-05-03 21:53 | 28.42050 | -87.06870 | 38128 ft | 390 kts | 281° |
| 2026-05-03 21:53 | 28.43752 | -87.12733 | 38125 ft | 390 kts | 281° |
| 2026-05-03 21:54 | 28.45449 | -87.18592 | 38121 ft | 390 kts | 281° |
| 2026-05-03 21:54 | 28.47144 | -87.24455 | 38111 ft | 390 kts | 281° |
| 2026-05-03 21:55 | 28.48837 | -87.30323 | 38122 ft | 390 kts | 281° |
| 2026-05-03 21:55 | 28.50524 | -87.36191 | 38125 ft | 390 kts | 281° |
| 2026-05-03 21:56 | 28.52213 | -87.42065 | 38122 ft | 390 kts | 281° |
| 2026-05-03 21:56 | 28.53903 | -87.47948 | 38115 ft | 390 kts | 281° |
| 2026-05-03 21:57 | 28.55586 | -87.53823 | 38121 ft | 390 kts | 281° |
| 2026-05-03 21:57 | 28.57271 | -87.59713 | 38126 ft | 390 kts | 281° |
| 2026-05-03 21:58 | 28.58950 | -87.65596 | 38116 ft | 390 kts | 281° |
| 2026-05-03 21:58 | 28.60581 | -87.71321 | 38126 ft | 390 kts | 281° |
| 2026-05-03 21:59 | 28.62250 | -87.77199 | 38129 ft | 390 kts | 282° |
| 2026-05-03 21:59 | 28.63923 | -87.83083 | 38130 ft | 389 kts | 282° |
| 2026-05-03 22:00 | 28.65588 | -87.88961 | 38163 ft | 390 kts | 282° |
| 2026-05-03 22:00 | 28.67255 | -87.94849 | 38143 ft | 390 kts | 282° |
| 2026-05-03 22:01 | 28.68920 | -88.00741 | 38135 ft | 390 kts | 282° |
| 2026-05-03 22:01 | 28.70582 | -88.06639 | 38131 ft | 391 kts | 282° |
| 2026-05-03 22:02 | 28.72238 | -88.12544 | 38134 ft | 390 kts | 282° |
| 2026-05-03 22:02 | 28.73895 | -88.18448 | 38130 ft | 391 kts | 282° |
| 2026-05-03 22:03 | 28.75552 | -88.24359 | 38145 ft | 391 kts | 282° |
| 2026-05-03 22:03 | 28.77205 | -88.30266 | 38140 ft | 391 kts | 282° |
| 2026-05-03 22:04 | 28.78852 | -88.36165 | 38134 ft | 390 kts | 282° |
| 2026-05-03 22:04 | 28.80497 | -88.42068 | 38138 ft | 390 kts | 282° |
| 2026-05-03 22:05 | 28.82142 | -88.47982 | 38125 ft | 390 kts | 282° |
| 2026-05-03 22:05 | 28.83782 | -88.53898 | 38141 ft | 391 kts | 283° |
| 2026-05-03 22:06 | 28.85452 | -88.59811 | 38138 ft | 392 kts | 284° |
| 2026-05-03 22:06 | 28.87533 | -88.65600 | 38141 ft | 396 kts | 289° |
| 2026-05-03 22:07 | 28.90136 | -88.71186 | 38144 ft | 400 kts | 294° |
| 2026-05-03 22:07 | 28.93258 | -88.76506 | 38135 ft | 406 kts | 299° |
| 2026-05-03 22:08 | 28.96860 | -88.81545 | 38160 ft | 411 kts | 302° |
| 2026-05-03 22:08 | 29.00587 | -88.86537 | 38148 ft | 414 kts | 303° |
| 2026-05-03 22:09 | 29.04336 | -88.91540 | 38146 ft | 414 kts | 303° |
| 2026-05-03 22:10 | 29.09943 | -88.99006 | 38144 ft | 414 kts | 303° |
| 2026-05-03 22:10 | 29.13720 | -89.04043 | 38149 ft | 414 kts | 303° |
| 2026-05-03 22:11 | 29.17470 | -89.09049 | 38147 ft | 414 kts | 303° |
| 2026-05-03 22:11 | 29.21218 | -89.14060 | 38149 ft | 414 kts | 303° |
| 2026-05-03 22:12 | 29.24974 | -89.19091 | 38340 ft | 418 kts | 303° |
| 2026-05-03 22:12 | 29.26860 | -89.21622 | 38801 ft | 416 kts | 303° |
| 2026-05-03 22:12 | 29.28737 | -89.24135 | 39219 ft | 414 kts | 303° |
| 2026-05-03 22:12 | 29.30601 | -89.26643 | 39604 ft | 412 kts | 304° |
| 2026-05-03 22:13 | 29.32435 | -89.29102 | 39969 ft | 410 kts | 304° |
| 2026-05-03 22:13 | 29.34288 | -89.31586 | 40146 ft | 409 kts | 304° |
| 2026-05-03 22:13 | 29.36137 | -89.34068 | 40143 ft | 409 kts | 303° |
| 2026-05-03 22:14 | 29.39824 | -89.39027 | 40151 ft | 408 kts | 303° |
| 2026-05-03 22:14 | 29.43509 | -89.43989 | 40152 ft | 408 kts | 303° |
| 2026-05-03 22:15 | 29.47192 | -89.48955 | 40155 ft | 408 kts | 303° |
| 2026-05-03 22:15 | 29.50873 | -89.53925 | 40154 ft | 408 kts | 303° |
| 2026-05-03 22:16 | 29.54552 | -89.58898 | 40191 ft | 408 kts | 303° |
| 2026-05-03 22:16 | 29.58238 | -89.63888 | 40158 ft | 409 kts | 304° |
| 2026-05-03 22:17 | 29.61931 | -89.68889 | 40159 ft | 410 kts | 304° |
| 2026-05-03 22:17 | 29.65623 | -89.73897 | 40156 ft | 410 kts | 303° |
| 2026-05-03 22:18 | 29.69311 | -89.78907 | 40156 ft | 410 kts | 303° |
| 2026-05-03 22:18 | 29.72991 | -89.83916 | 40158 ft | 410 kts | 303° |
| 2026-05-03 22:19 | 29.76673 | -89.88931 | 40153 ft | 410 kts | 303° |
| 2026-05-03 22:19 | 29.80352 | -89.93948 | 40159 ft | 410 kts | 303° |
| 2026-05-03 22:20 | 29.83975 | -89.98963 | 40185 ft | 409 kts | 302° |
| 2026-05-03 22:20 | 29.87285 | -90.04283 | 40162 ft | 407 kts | 298° |
| 2026-05-03 22:21 | 29.90441 | -90.09702 | 40155 ft | 407 kts | 298° |
| 2026-05-03 22:21 | 29.93595 | -90.15140 | 40151 ft | 407 kts | 298° |
| 2026-05-03 22:22 | 29.96730 | -90.20557 | 40152 ft | 407 kts | 298° |
| 2026-05-03 22:22 | 29.99871 | -90.25992 | 40149 ft | 407 kts | 298° |
| 2026-05-03 22:23 | 30.03016 | -90.31444 | 40148 ft | 407 kts | 298° |
| 2026-05-03 22:23 | 30.06135 | -90.36859 | 40150 ft | 407 kts | 298° |
| 2026-05-03 22:24 | 30.09265 | -90.42309 | 40152 ft | 406 kts | 298° |
| 2026-05-03 22:24 | 30.12392 | -90.47751 | 40177 ft | 406 kts | 299° |
| 2026-05-03 22:25 | 30.15521 | -90.53206 | 40145 ft | 407 kts | 299° |
| 2026-05-03 22:25 | 30.18654 | -90.58670 | 40147 ft | 407 kts | 299° |
| 2026-05-03 22:26 | 30.21782 | -90.64135 | 40148 ft | 407 kts | 299° |
| 2026-05-03 22:26 | 30.24909 | -90.69607 | 40159 ft | 407 kts | 299° |
| 2026-05-03 22:27 | 30.28036 | -90.75088 | 40158 ft | 407 kts | 299° |
| 2026-05-03 22:27 | 30.31151 | -90.80564 | 40148 ft | 406 kts | 299° |
| 2026-05-03 22:28 | 30.34264 | -90.86030 | 40160 ft | 406 kts | 299° |
| 2026-05-03 22:28 | 30.37375 | -90.91501 | 40163 ft | 406 kts | 299° |
| 2026-05-03 22:29 | 30.40465 | -90.96945 | 40169 ft | 406 kts | 300° |
| 2026-05-03 22:29 | 30.43571 | -91.02429 | 40155 ft | 407 kts | 300° |
| 2026-05-03 22:30 | 30.46683 | -91.07924 | 40148 ft | 407 kts | 300° |
| 2026-05-03 22:30 | 30.49797 | -91.13432 | 40150 ft | 407 kts | 300° |
| 2026-05-03 22:31 | 30.52892 | -91.18927 | 40150 ft | 405 kts | 300° |
| 2026-05-03 22:31 | 30.55458 | -91.23473 | 40147 ft | 404 kts | 300° |
| 2026-05-03 22:32 | 30.58540 | -91.28943 | 40150 ft | 404 kts | 300° |
| 2026-05-03 22:32 | 30.61621 | -91.34419 | 40134 ft | 404 kts | 300° |
| 2026-05-03 22:33 | 30.64698 | -91.39899 | 40131 ft | 404 kts | 300° |
| 2026-05-03 22:33 | 30.67768 | -91.45377 | 40129 ft | 404 kts | 300° |
| 2026-05-03 22:34 | 30.70832 | -91.50853 | 40129 ft | 404 kts | 300° |
| 2026-05-03 22:34 | 30.73888 | -91.56331 | 40124 ft | 402 kts | 301° |
| 2026-05-03 22:35 | 30.76912 | -91.61747 | 40128 ft | 401 kts | 301° |
| 2026-05-03 22:35 | 30.79951 | -91.67195 | 40135 ft | 401 kts | 301° |
| 2026-05-03 22:36 | 30.82987 | -91.72646 | 40139 ft | 401 kts | 301° |
| 2026-05-03 22:36 | 30.86018 | -91.78100 | 40143 ft | 401 kts | 301° |
| 2026-05-03 22:37 | 30.89047 | -91.83555 | 40146 ft | 401 kts | 300° |
| 2026-05-03 22:37 | 30.92076 | -91.89016 | 40147 ft | 401 kts | 300° |
| 2026-05-03 22:38 | 30.95090 | -91.94468 | 40159 ft | 398 kts | 301° |
| 2026-05-03 22:38 | 30.98091 | -91.99897 | 40146 ft | 398 kts | 301° |
| 2026-05-03 22:39 | 31.01065 | -92.05278 | 40140 ft | 397 kts | 301° |
| 2026-05-03 22:39 | 31.04061 | -92.10710 | 40141 ft | 397 kts | 301° |
| 2026-05-03 22:40 | 31.07051 | -92.16138 | 40137 ft | 397 kts | 301° |
| 2026-05-03 22:40 | 31.10038 | -92.21570 | 40141 ft | 397 kts | 301° |
| 2026-05-03 22:41 | 31.13027 | -92.27012 | 40138 ft | 397 kts | 301° |
| 2026-05-03 22:41 | 31.16005 | -92.32445 | 40132 ft | 395 kts | 301° |
| 2026-05-03 22:42 | 31.18967 | -92.37849 | 40121 ft | 394 kts | 301° |
| 2026-05-03 22:42 | 31.21919 | -92.43247 | 40117 ft | 394 kts | 301° |
| 2026-05-03 22:43 | 31.24723 | -92.48769 | 40132 ft | 395 kts | 297° |
| 2026-05-03 22:43 | 31.27116 | -92.54567 | 40123 ft | 396 kts | 294° |
| 2026-05-03 22:44 | 31.29183 | -92.60501 | 40121 ft | 396 kts | 292° |
| 2026-05-03 22:44 | 31.31237 | -92.66483 | 40123 ft | 396 kts | 292° |
| 2026-05-03 22:45 | 31.33271 | -92.72448 | 40116 ft | 392 kts | 292° |
| 2026-05-03 22:45 | 31.35287 | -92.78371 | 40131 ft | 391 kts | 292° |
| 2026-05-03 22:46 | 31.37303 | -92.84307 | 40155 ft | 392 kts | 292° |
| 2026-05-03 22:46 | 31.39313 | -92.90243 | 40138 ft | 392 kts | 292° |
| 2026-05-03 22:47 | 31.41320 | -92.96180 | 40138 ft | 392 kts | 292° |
| 2026-05-03 22:47 | 31.43310 | -93.02077 | 40139 ft | 392 kts | 292° |
| 2026-05-03 22:48 | 31.45308 | -93.08013 | 40133 ft | 389 kts | 292° |
| 2026-05-03 22:48 | 31.47293 | -93.13916 | 40136 ft | 387 kts | 292° |
| 2026-05-03 22:49 | 31.49266 | -93.19792 | 40139 ft | 388 kts | 292° |
| 2026-05-03 22:49 | 31.51247 | -93.25698 | 40134 ft | 390 kts | 292° |
| 2026-05-03 22:50 | 31.53231 | -93.31623 | 40132 ft | 390 kts | 292° |
| 2026-05-03 22:50 | 31.55195 | -93.37513 | 40136 ft | 390 kts | 292° |
| 2026-05-03 22:51 | 31.57171 | -93.43441 | 40136 ft | 390 kts | 292° |
| 2026-05-03 22:51 | 31.59141 | -93.49364 | 40134 ft | 389 kts | 292° |
| 2026-05-03 22:52 | 31.60983 | -93.55357 | 40137 ft | 390 kts | 289° |
| 2026-05-03 22:52 | 31.62540 | -93.61458 | 40138 ft | 390 kts | 289° |
| 2026-05-03 22:53 | 31.64090 | -93.67578 | 40134 ft | 390 kts | 288° |
| 2026-05-03 22:53 | 31.65634 | -93.73700 | 40135 ft | 390 kts | 288° |
| 2026-05-03 22:54 | 31.67162 | -93.79777 | 40136 ft | 390 kts | 288° |
| 2026-05-03 22:54 | 31.68682 | -93.85861 | 40121 ft | 384 kts | 289° |
| 2026-05-03 22:55 | 31.70188 | -93.91879 | 40128 ft | 382 kts | 289° |
| 2026-05-03 22:55 | 31.71688 | -93.97882 | 40138 ft | 382 kts | 289° |
| 2026-05-03 22:56 | 31.73183 | -94.03881 | 40135 ft | 382 kts | 289° |
| 2026-05-03 22:56 | 31.74678 | -94.09895 | 40153 ft | 384 kts | 289° |
| 2026-05-03 22:57 | 31.76166 | -94.15898 | 40139 ft | 385 kts | 289° |
| 2026-05-03 22:57 | 31.77658 | -94.21936 | 40132 ft | 383 kts | 289° |
| 2026-05-03 22:58 | 31.79139 | -94.27940 | 40131 ft | 381 kts | 289° |
| 2026-05-03 22:58 | 31.80613 | -94.33927 | 40134 ft | 381 kts | 289° |
| 2026-05-03 22:59 | 31.82085 | -94.39918 | 40138 ft | 381 kts | 289° |
| 2026-05-03 22:59 | 31.83555 | -94.45912 | 40136 ft | 381 kts | 289° |
| 2026-05-03 23:00 | 31.85023 | -94.51914 | 40138 ft | 381 kts | 289° |
| 2026-05-03 23:00 | 31.86485 | -94.57904 | 40118 ft | 380 kts | 289° |
| 2026-05-03 23:01 | 31.87939 | -94.63880 | 40136 ft | 379 kts | 289° |
| 2026-05-03 23:01 | 31.89390 | -94.69852 | 40118 ft | 379 kts | 289° |
| 2026-05-03 23:02 | 31.90837 | -94.75819 | 40112 ft | 379 kts | 289° |
| 2026-05-03 23:02 | 31.92272 | -94.81748 | 40109 ft | 379 kts | 289° |
| 2026-05-03 23:03 | 31.93713 | -94.87720 | 40106 ft | 379 kts | 289° |
| 2026-05-03 23:03 | 31.95153 | -94.93697 | 40106 ft | 378 kts | 289° |
| 2026-05-03 23:04 | 31.96588 | -94.99664 | 40088 ft | 378 kts | 289° |
| 2026-05-03 23:04 | 31.97302 | -95.02641 | 39973 ft | 378 kts | 288° |
| 2026-05-03 23:04 | 31.98015 | -95.05622 | 39749 ft | 376 kts | 289° |
| 2026-05-03 23:04 | 31.98721 | -95.08579 | 39506 ft | 374 kts | 289° |
| 2026-05-03 23:05 | 31.99422 | -95.11520 | 39269 ft | 371 kts | 289° |
| 2026-05-03 23:05 | 32.00115 | -95.14432 | 39035 ft | 367 kts | 289° |
| 2026-05-03 23:05 | 32.00804 | -95.17326 | 38797 ft | 365 kts | 289° |
| 2026-05-03 23:05 | 32.01491 | -95.20209 | 38528 ft | 365 kts | 289° |
| 2026-05-03 23:06 | 32.02180 | -95.23097 | 38219 ft | 365 kts | 289° |
| 2026-05-03 23:06 | 32.02867 | -95.25982 | 37866 ft | 366 kts | 289° |
| 2026-05-03 23:06 | 32.03558 | -95.28883 | 37385 ft | 367 kts | 289° |
| 2026-05-03 23:06 | 32.04247 | -95.31783 | 36845 ft | 367 kts | 289° |
| 2026-05-03 23:07 | 32.04936 | -95.34686 | 36237 ft | 367 kts | 289° |
| 2026-05-03 23:07 | 32.05626 | -95.37590 | 35639 ft | 368 kts | 289° |
| 2026-05-03 23:07 | 32.06316 | -95.40503 | 35035 ft | 368 kts | 289° |
| 2026-05-03 23:07 | 32.07006 | -95.43426 | 34407 ft | 370 kts | 288° |
| 2026-05-03 23:08 | 32.07699 | -95.46360 | 33730 ft | 372 kts | 288° |
| 2026-05-03 23:08 | 32.08383 | -95.49266 | 33034 ft | 373 kts | 288° |
| 2026-05-03 23:08 | 32.09088 | -95.52258 | 32359 ft | 374 kts | 288° |
| 2026-05-03 23:08 | 32.09777 | -95.55189 | 31692 ft | 376 kts | 288° |
| 2026-05-03 23:09 | 32.10480 | -95.58179 | 31014 ft | 378 kts | 288° |
| 2026-05-03 23:09 | 32.11187 | -95.61194 | 30336 ft | 382 kts | 288° |
| 2026-05-03 23:09 | 32.11900 | -95.64232 | 29547 ft | 385 kts | 288° |
| 2026-05-03 23:09 | 32.12616 | -95.67292 | 28826 ft | 388 kts | 288° |
| 2026-05-03 23:10 | 32.13338 | -95.70381 | 28096 ft | 391 kts | 288° |
| 2026-05-03 23:10 | 32.13818 | -95.72437 | 27648 ft | 393 kts | 287° |
| 2026-05-03 23:10 | 32.14816 | -95.76709 | 27108 ft | 408 kts | 287° |
| 2026-05-03 23:10 | 32.15573 | -95.79962 | 26760 ft | 413 kts | 287° |
| 2026-05-03 23:11 | 32.16330 | -95.83223 | 26442 ft | 406 kts | 287° |
| 2026-05-03 23:11 | 32.17060 | -95.86378 | 26321 ft | 391 kts | 287° |
| 2026-05-03 23:11 | 32.17765 | -95.89428 | 26157 ft | 378 kts | 287° |
| 2026-05-03 23:11 | 32.18447 | -95.92375 | 25984 ft | 366 kts | 287° |
| 2026-05-03 23:12 | 32.19110 | -95.95241 | 25820 ft | 357 kts | 287° |
| 2026-05-03 23:12 | 32.19757 | -95.98033 | 25346 ft | 357 kts | 287° |
| 2026-05-03 23:12 | 32.20419 | -96.00891 | 24906 ft | 355 kts | 287° |
| 2026-05-03 23:12 | 32.21068 | -96.03701 | 24504 ft | 354 kts | 287° |
| 2026-05-03 23:13 | 32.21706 | -96.06462 | 24080 ft | 352 kts | 287° |
| 2026-05-03 23:13 | 32.22350 | -96.09256 | 23678 ft | 351 kts | 287° |
| 2026-05-03 23:13 | 32.22993 | -96.12035 | 23235 ft | 349 kts | 287° |
| 2026-05-03 23:13 | 32.23628 | -96.14798 | 22816 ft | 347 kts | 287° |
| 2026-05-03 23:14 | 32.24258 | -96.17539 | 22425 ft | 344 kts | 287° |
| 2026-05-03 23:14 | 32.24885 | -96.20273 | 22025 ft | 342 kts | 287° |
| 2026-05-03 23:14 | 32.25508 | -96.22990 | 21630 ft | 341 kts | 287° |
| 2026-05-03 23:14 | 32.26134 | -96.25723 | 21242 ft | 353 kts | 286° |
| 2026-05-03 23:15 | 32.26790 | -96.28577 | 20821 ft | 362 kts | 287° |
| 2026-05-03 23:15 | 32.27697 | -96.31346 | 20393 ft | 362 kts | 297° |
| 2026-05-03 23:15 | 32.29041 | -96.33871 | 19968 ft | 362 kts | 307° |
| 2026-05-03 23:15 | 32.30731 | -96.36073 | 19551 ft | 362 kts | 314° |
| 2026-05-03 23:16 | 32.32528 | -96.38160 | 19156 ft | 362 kts | 315° |
| 2026-05-03 23:16 | 32.34338 | -96.40231 | 18752 ft | 361 kts | 315° |
| 2026-05-03 23:16 | 32.36123 | -96.42271 | 18346 ft | 361 kts | 315° |
| 2026-05-03 23:16 | 32.37920 | -96.44327 | 17949 ft | 355 kts | 315° |
| 2026-05-03 23:17 | 32.39676 | -96.46339 | 17616 ft | 348 kts | 315° |
| 2026-05-03 23:17 | 32.41399 | -96.48316 | 17276 ft | 341 kts | 315° |
| 2026-05-03 23:17 | 32.43094 | -96.50264 | 16909 ft | 336 kts | 315° |
| 2026-05-03 23:17 | 32.44663 | -96.52072 | 16549 ft | 333 kts | 315° |
| 2026-05-03 23:18 | 32.46326 | -96.53985 | 16267 ft | 330 kts | 314° |
| 2026-05-03 23:18 | 32.47979 | -96.55890 | 16114 ft | 330 kts | 314° |
| 2026-05-03 23:18 | 32.49642 | -96.57805 | 15911 ft | 330 kts | 314° |
| 2026-05-03 23:18 | 32.51293 | -96.59697 | 15613 ft | 326 kts | 314° |
| 2026-05-03 23:19 | 32.52926 | -96.61566 | 15181 ft | 327 kts | 314° |
| 2026-05-03 23:19 | 32.54573 | -96.63448 | 14768 ft | 326 kts | 314° |
| 2026-05-03 23:19 | 32.56211 | -96.65327 | 14372 ft | 325 kts | 314° |
| 2026-05-03 23:19 | 32.57835 | -96.67178 | 14014 ft | 323 kts | 314° |
| 2026-05-03 23:20 | 32.59452 | -96.68996 | 13589 ft | 316 kts | 314° |
| 2026-05-03 23:20 | 32.61045 | -96.70784 | 13276 ft | 311 kts | 314° |
| 2026-05-03 23:20 | 32.62582 | -96.72516 | 13193 ft | 298 kts | 314° |
| 2026-05-03 23:20 | 32.64055 | -96.74181 | 13110 ft | 286 kts | 315° |
| 2026-05-03 23:21 | 32.65472 | -96.75776 | 13017 ft | 276 kts | 314° |
| 2026-05-03 23:21 | 32.66396 | -96.76820 | 12995 ft | 281 kts | 314° |
| 2026-05-03 23:21 | 32.68314 | -96.78995 | 13011 ft | 287 kts | 314° |
| 2026-05-03 23:21 | 32.69269 | -96.80084 | 13012 ft | 288 kts | 314° |
| 2026-05-03 23:22 | 32.72184 | -96.83393 | 12959 ft | 290 kts | 314° |
| 2026-05-03 23:22 | 32.73647 | -96.85051 | 12586 ft | 290 kts | 313° |
| 2026-05-03 23:22 | 32.75110 | -96.86715 | 12243 ft | 287 kts | 314° |
| 2026-05-03 23:23 | 32.76523 | -96.88325 | 12180 ft | 275 kts | 314° |
| 2026-05-03 23:23 | 32.77888 | -96.89875 | 12099 ft | 263 kts | 313° |
| 2026-05-03 23:23 | 32.79339 | -96.91152 | 11995 ft | 256 kts | 334° |
| 2026-05-03 23:23 | 32.81129 | -96.91564 | 12023 ft | 260 kts | 355° |
| 2026-05-03 23:24 | 32.82938 | -96.91571 | 12030 ft | 259 kts | 358° |
| 2026-05-03 23:24 | 32.84743 | -96.91533 | 11993 ft | 260 kts | 358° |
| 2026-05-03 23:24 | 32.86557 | -96.91501 | 11698 ft | 260 kts | 358° |
| 2026-05-03 23:24 | 32.88400 | -96.91476 | 10957 ft | 272 kts | 358° |
| 2026-05-03 23:25 | 32.90321 | -96.91460 | 10158 ft | 279 kts | 359° |
| 2026-05-03 23:25 | 32.92295 | -96.91447 | 9329 ft | 285 kts | 358° |
| 2026-05-03 23:25 | 32.94308 | -96.91428 | 8598 ft | 292 kts | 359° |
| 2026-05-03 23:25 | 32.96347 | -96.91416 | 8235 ft | 294 kts | 358° |
| 2026-05-03 23:26 | 32.98403 | -96.91399 | 7908 ft | 295 kts | 359° |
| 2026-05-03 23:26 | 33.00451 | -96.91386 | 7553 ft | 294 kts | 358° |
| 2026-05-03 23:26 | 33.02499 | -96.91373 | 7250 ft | 294 kts | 358° |
| 2026-05-03 23:26 | 33.04555 | -96.91361 | 6952 ft | 293 kts | 358° |
| 2026-05-03 23:27 | 33.06593 | -96.91350 | 6612 ft | 293 kts | 358° |
| 2026-05-03 23:27 | 33.08628 | -96.91338 | 6174 ft | 294 kts | 359° |
| 2026-05-03 23:27 | 33.10705 | -96.91325 | 5505 ft | 302 kts | 359° |
| 2026-05-03 23:27 | 33.12804 | -96.91312 | 5102 ft | 299 kts | 359° |
| 2026-05-03 23:28 | 33.14846 | -96.91301 | 5000 ft | 288 kts | 356° |
| 2026-05-03 23:28 | 33.16768 | -96.91809 | 4980 ft | 280 kts | 330° |
| 2026-05-03 23:28 | 33.18192 | -96.93206 | 4967 ft | 254 kts | 300° |
| 2026-05-03 23:28 | 33.18897 | -96.95036 | 4984 ft | 236 kts | 276° |
| 2026-05-03 23:29 | 33.18890 | -96.96958 | 5022 ft | 230 kts | 259° |
| 2026-05-03 23:29 | 33.18680 | -96.98828 | 5007 ft | 224 kts | 257° |
| 2026-05-03 23:29 | 33.18217 | -97.00565 | 4985 ft | 218 kts | 232° |
| 2026-05-03 23:29 | 33.17065 | -97.01705 | 5010 ft | 217 kts | 206° |
| 2026-05-03 23:30 | 33.15643 | -97.02277 | 5026 ft | 216 kts | 191° |
| 2026-05-03 23:30 | 33.14168 | -97.02470 | 4893 ft | 217 kts | 184° |
| 2026-05-03 23:30 | 33.12662 | -97.02506 | 4605 ft | 216 kts | 181° |
| 2026-05-03 23:30 | 33.11167 | -97.02504 | 4302 ft | 214 kts | 181° |
| 2026-05-03 23:31 | 33.09683 | -97.02501 | 4040 ft | 212 kts | 181° |
| 2026-05-03 23:31 | 33.08212 | -97.02504 | 3767 ft | 210 kts | 182° |
| 2026-05-03 23:31 | 33.06742 | -97.02510 | 3496 ft | 209 kts | 182° |
| 2026-05-03 23:31 | 33.05303 | -97.02517 | 3274 ft | 204 kts | 182° |
| 2026-05-03 23:32 | 33.03906 | -97.02526 | 2980 ft | 198 kts | 182° |
| 2026-05-03 23:32 | 33.02550 | -97.02534 | 2724 ft | 191 kts | 182° |
| 2026-05-03 23:32 | 33.01230 | -97.02541 | 2461 ft | 187 kts | 181° |
| 2026-05-03 23:32 | 32.99956 | -97.02548 | 2198 ft | 178 kts | 181° |
| 2026-05-03 23:33 | 32.98773 | -97.02555 | 1960 ft | 162 kts | 181° |
| 2026-05-03 23:33 | 32.97696 | -97.02560 | 1747 ft | 147 kts | 181° |
| 2026-05-03 23:33 | 32.96708 | -97.02572 | 1528 ft | 137 kts | 181° |
| 2026-05-03 23:33 | 32.95758 | -97.02571 | 1380 ft | 136 kts | 181° |
| 2026-05-03 23:34 | 32.94815 | -97.02578 | 1269 ft | 135 kts | 180° |
| 2026-05-03 23:34 | 32.93883 | -97.02582 | 1070 ft | 135 kts | 181° |
| 2026-05-03 23:34 | 32.92938 | -97.02589 | 901 ft | 135 kts | 180° |
| 2026-05-03 23:34 | 32.92000 | -97.02593 | 730 ft | 134 kts | 182° |
| 2026-05-03 23:35 | 32.91079 | -97.02594 | 582 ft | 127 kts | 182° |
| 2026-05-03 23:35 | 32.90368 | -97.02604 | 585 ft | 73 kts | 180° |
| 2026-05-03 23:35 | 32.90044 | -97.02627 | 582 ft | 35 kts | 194° |
| 2026-05-03 23:35 | 32.89845 | -97.02736 | 582 ft | 25 kts | 210° |
| 2026-05-03 23:36 | 32.89695 | -97.02801 | 582 ft | 20 kts | 183° |
| 2026-05-03 23:36 | 32.89572 | -97.02803 | 583 ft | 16 kts | 180° |
| 2026-05-03 23:36 | 32.89481 | -97.02803 | 581 ft | 9 kts | 180° |
| 2026-05-03 23:36 | 32.89431 | -97.02806 | 581 ft | 7 kts | 194° |
| 2026-05-03 23:37 | 32.89397 | -97.02856 | 581 ft | 9 kts | 257° |
| 2026-05-03 23:37 | 32.89393 | -97.02934 | 583 ft | 10 kts | 270° |
| 2026-05-03 23:37 | 32.89394 | -97.03031 | 585 ft | 14 kts | 270° |
| 2026-05-03 23:37 | 32.89403 | -97.03160 | 589 ft | 17 kts | 303° |
| 2026-05-03 23:38 | 32.89521 | -97.03197 | 589 ft | 20 kts | 2° |
| 2026-05-03 23:38 | 32.89667 | -97.03195 | 590 ft | 23 kts | 0° |
| 2026-05-03 23:38 | 32.89841 | -97.03194 | 589 ft | 27 kts | 0° |
| 2026-05-03 23:38 | 32.90038 | -97.03192 | 587 ft | 30 kts | 0° |
| 2026-05-03 23:39 | 32.90255 | -97.03191 | 582 ft | 27 kts | 0° |
| 2026-05-03 23:39 | 32.90425 | -97.03189 | 584 ft | 25 kts | 0° |
| 2026-05-03 23:39 | 32.90612 | -97.03188 | 583 ft | 28 kts | 0° |
| 2026-05-03 23:39 | 32.90814 | -97.03188 | 587 ft | 27 kts | 0° |
| 2026-05-03 23:40 | 32.90952 | -97.03187 | 590 ft | 15 kts | 0° |
| 2026-05-03 23:40 | 32.91007 | -97.03244 | 591 ft | 13 kts | 278° |
| 2026-05-03 23:40 | 32.91006 | -97.03365 | 591 ft | 16 kts | 268° |
| 2026-05-03 23:40 | 32.91036 | -97.03456 | 593 ft | 13 kts | 342° |
| 2026-05-03 23:41 | 32.91123 | -97.03479 | 594 ft | 13 kts | 322° |
| 2026-05-03 23:41 | 32.91150 | -97.03570 | 593 ft | 11 kts | 279° |
| 2026-05-03 23:41 | 32.91220 | -97.03625 | 593 ft | 14 kts | 357° |
| 2026-05-03 23:41 | 32.91278 | -97.03623 | 591 ft | 0 kts | 2° |